KOLE/OLE METAR and TAF weather

Enter ICAO airport designator
Station Type Date Time Source
KOLE METAR 2024/02/26 17:15 UTC NOAA

KOLE 261715Z AUTO 25006KT 10SM CLR 10/M02 A2993 RMK AO2


Station Type Date Time Source
KOLE Decoded METAR 2024/02/26 17:15 UTC NOAA

Olean Municipal, NY, United States (KOLE) 42-14N 078-22W
Feb 26, 2024 - 12:15 PM EST / 2024.02.26 1715 UTC
Wind: from the WSW (250 degrees) at 7 MPH (6 KT):0
Visibility: 10 mile(s):0
Sky conditions: clear
Temperature: 50 F (10 C)
Dew Point: 28 F (-2 C)
Relative Humidity: 42%
Pressure (altimeter): 29.93 in. Hg (1013 hPa)
ob: KOLE 261715Z AUTO 25006KT 10SM CLR 10/M02 A2993 RMK AO2
cycle: 17

Station Type Date Time Source
KOLE TAF UTC NOAA

Error!

Example: see airport list